Time;durP1;ratioP1;P1;durP2;ratioP2;P2;SDS_P1;SDS_P2;PMS_P1;PMS_P2;Temp;Humidity;BMP_temperature;BMP_pressure;BME280_temperature;BME280_humidity;BME280_pressure;Samples;Min_cycle;Max_cycle;Signal;HPM_P1;HPM_P2
2022/03/15 00:01:25;;;;;;;25.63;13.10;;;;;;;10.33;52.33;102743.16;4989924;28;124442;-82
2022/03/15 00:03:53;;;;;;;25.42;12.35;;;;;;;10.32;52.42;102740.53;4980723;28;115171;-82
2022/03/15 00:06:20;;;;;;;25.15;12.38;;;;;;;10.32;52.78;102746.72;5002372;28;114586;-83
2022/03/15 00:08:48;;;;;;;24.77;12.13;;;;;;;10.32;52.79;102749.38;4995770;28;122758;-82
2022/03/15 00:11:19;;;;;;;27.15;12.40;;;;;;;10.31;52.83;102744.97;4989507;28;123914;-81
2022/03/15 00:13:47;;;;;;;20.02;11.68;;;;;;;10.31;52.82;102744.97;5006378;28;113652;-83
2022/03/15 00:16:15;;;;;;;23.08;11.90;;;;;;;10.32;52.65;102740.53;4984728;28;114002;-83
2022/03/15 00:18:42;;;;;;;24.17;11.77;;;;;;;10.33;52.51;102737.88;4965738;28;123903;-82
2022/03/15 00:21:11;;;;;;;20.75;11.10;;;;;;;10.34;53.02;102744.06;4990827;28;123315;-82
2022/03/15 00:23:39;;;;;;;22.48;12.05;;;;;;;10.37;52.62;102743.13;4990223;28;113554;-82
2022/03/15 00:26:07;;;;;;;22.60;11.27;;;;;;;10.39;52.98;102746.63;4996221;28;113787;-83
2022/03/15 00:28:35;;;;;;;25.90;11.60;;;;;;;10.42;52.88;102741.31;4990718;28;123642;-83
2022/03/15 00:31:02;;;;;;;22.92;11.75;;;;;;;10.42;52.75;102736.88;4984587;28;123011;-82
2022/03/15 00:33:30;;;;;;;21.48;11.65;;;;;;;10.44;52.78;102731.56;5010722;28;115085;-81
2022/03/15 00:36:01;;;;;;;18.55;10.82;;;;;;;10.45;53.00;102725.34;4977389;28;113610;-81
2022/03/15 00:38:29;;;;;;;20.80;11.10;;;;;;;10.44;52.95;102723.63;5003727;28;123666;-81
2022/03/15 00:40:58;;;;;;;20.38;10.93;;;;;;;10.45;53.03;102728.00;4990975;28;123542;-81
2022/03/15 00:43:26;;;;;;;21.85;10.68;;;;;;;10.45;53.03;102735.94;4980842;28;114589;-82
2022/03/15 00:45:55;;;;;;;21.15;11.05;;;;;;;10.45;52.93;102735.94;4985031;28;113325;-82
2022/03/15 00:48:22;;;;;;;19.45;11.20;;;;;;;10.44;53.00;102729.78;4985136;28;123593;-83
2022/03/15 00:50:49;;;;;;;22.42;10.20;;;;;;;10.44;52.81;102739.50;4982534;28;125581;-82
2022/03/15 00:53:18;;;;;;;18.33;9.98;;;;;;;10.44;53.17;102737.72;4989148;28;115341;-82
2022/03/15 00:55:46;;;;;;;21.13;10.32;;;;;;;10.45;52.84;102738.59;4991042;28;112300;-81
2022/03/15 00:58:13;;;;;;;19.00;10.07;;;;;;;10.45;53.32;102735.94;4987610;28;124236;-82
2022/03/15 01:00:44;;;;;;;20.73;10.05;;;;;;;10.45;53.04;102735.94;4994327;28;123745;-82
2022/03/15 01:03:15;;;;;;;18.35;9.70;;;;;;;10.46;52.97;102724.47;4986457;28;114982;-82
2022/03/15 01:05:43;;;;;;;18.90;9.65;;;;;;;10.45;53.33;102718.31;5007689;28;112890;-81
2022/03/15 01:08:14;;;;;;;18.95;9.75;;;;;;;10.46;53.30;102717.41;4982800;28;123288;-82
2022/03/15 01:10:43;;;;;;;20.75;9.15;;;;;;;10.45;52.92;102714.75;4976081;28;123384;-81
2022/03/15 01:13:11;;;;;;;17.65;8.88;;;;;;;10.46;52.85;102721.81;4959235;28;113848;-81
2022/03/15 01:15:44;;;;;;;18.67;8.85;;;;;;;10.47;53.19;102728.84;4975270;28;114340;-82
2022/03/15 01:18:12;;;;;;;14.30;8.90;;;;;;;10.47;53.27;102723.56;4987120;28;123120;-82
2022/03/15 01:20:44;;;;;;;22.25;9.63;;;;;;;10.46;53.20;102719.19;4990037;28;123799;-81
2022/03/15 01:23:11;;;;;;;17.17;8.45;;;;;;;10.46;53.08;102716.53;5007336;28;112792;-82
2022/03/15 01:25:39;;;;;;;18.42;8.50;;;;;;;10.48;53.34;102720.03;4966490;28;113820;-83
2022/03/15 01:28:09;;;;;;;17.13;8.30;;;;;;;10.49;53.11;102716.47;4985600;28;123898;-81
2022/03/15 01:30:36;;;;;;;20.90;8.85;;;;;;;10.50;52.94;102718.22;4979998;28;123048;-81
2022/03/15 01:33:04;;;;;;;17.85;8.50;;;;;;;10.51;53.02;102714.69;4986238;28;113525;-82
2022/03/15 01:35:31;;;;;;;16.65;8.65;;;;;;;10.51;53.12;102709.41;4970660;28;113980;-81
2022/03/15 01:37:58;;;;;;;14.32;8.13;;;;;;;10.51;52.89;102704.09;4967378;28;122416;-81
2022/03/15 01:40:25;;;;;;;16.77;8.90;;;;;;;10.52;53.01;102703.19;4977665;28;122303;-81
2022/03/15 01:42:53;;;;;;;15.23;8.48;;;;;;;10.53;53.06;102707.59;4983344;28;114405;-81
2022/03/15 01:45:37;;;;;;;16.75;8.52;;;;;;;10.53;53.11;102689.06;4982906;28;112340;-81
2022/03/15 01:48:06;;;;;;;15.40;8.20;;;;;;;10.54;53.28;102693.44;4980990;28;123153;-81
2022/03/15 01:50:34;;;;;;;15.10;8.27;;;;;;;10.53;52.80;102691.69;5004100;28;122929;-81
2022/03/15 01:53:06;;;;;;;16.13;7.82;;;;;;;10.55;53.20;102699.59;4987620;28;116607;-81
2022/03/15 01:55:34;;;;;;;16.52;7.53;;;;;;;10.56;53.05;102690.75;4969727;28;114615;-81
2022/03/15 01:58:01;;;;;;;14.43;7.80;;;;;;;10.56;53.14;102685.47;4966293;28;123535;-81
2022/03/15 02:00:31;;;;;;;14.85;7.80;;;;;;;10.55;52.92;102684.59;4987679;28;123118;-80
2022/03/15 02:03:02;;;;;;;15.02;8.20;;;;;;;10.55;52.65;102684.59;4961325;28;113710;-81
2022/03/15 02:05:30;;;;;;;17.77;8.73;;;;;;;10.54;52.47;102687.28;4991569;28;113917;-82
2022/03/15 02:08:06;;;;;;;15.90;8.23;;;;;;;10.50;52.86;102681.13;4984518;28;124023;-80
2022/03/15 02:10:34;;;;;;;16.02;8.88;;;;;;;10.49;52.52;102682.03;4966176;28;122845;-82
2022/03/15 02:13:02;;;;;;;17.05;8.75;;;;;;;10.46;52.58;102679.44;4982041;28;114572;-81
2022/03/15 02:15:29;;;;;;;17.33;8.43;;;;;;;10.42;52.64;102683.91;4978790;28;114866;-82
2022/03/15 02:17:56;;;;;;;14.20;8.32;;;;;;;10.40;52.68;102679.53;4996073;28;123877;-82
2022/03/15 02:20:23;;;;;;;14.65;8.20;;;;;;;10.38;52.77;102676.00;4996733;28;122999;-82
2022/03/15 02:22:51;;;;;;;13.98;8.40;;;;;;;10.35;52.91;102676.06;4986959;28;114814;-82
2022/03/15 02:25:18;;;;;;;17.00;7.65;;;;;;;10.33;52.84;102679.59;4981338;28;113859;-82
2022/03/15 02:27:45;;;;;;;16.17;8.55;;;;;;;10.32;52.86;102677.88;4976600;28;123879;-83
2022/03/15 02:30:12;;;;;;;16.10;8.52;;;;;;;10.32;52.92;102677.88;5000589;28;124243;-82
2022/03/15 02:32:40;;;;;;;17.02;8.55;;;;;;;10.31;52.73;102670.81;4964911;28;113695;-82
2022/03/15 02:35:07;;;;;;;14.75;8.02;;;;;;;10.31;52.88;102668.16;4989039;28;113695;-82
2022/03/15 02:37:34;;;;;;;14.15;7.70;;;;;;;10.29;52.58;102659.34;4990972;28;123937;-82
2022/03/15 02:40:02;;;;;;;15.75;8.57;;;;;;;10.27;52.50;102658.47;4967786;28;123216;-81
2022/03/15 02:42:29;;;;;;;16.98;8.73;;;;;;;10.26;52.85;102656.72;4972613;28;113910;-82
2022/03/15 02:44:56;;;;;;;17.33;7.93;;;;;;;10.25;52.72;102654.97;4998115;28;114655;-82
2022/03/15 02:47:23;;;;;;;13.10;7.85;;;;;;;10.24;52.91;102647.94;4982060;28;123182;-82
2022/03/15 02:49:51;;;;;;;17.02;8.90;;;;;;;10.24;52.82;102647.94;4975266;28;123996;-82
2022/03/15 02:52:18;;;;;;;16.58;8.73;;;;;;;10.21;52.82;102648.00;4978633;28;115075;-81
2022/03/15 02:54:45;;;;;;;16.73;8.48;;;;;;;10.19;52.71;102639.19;4965241;28;112894;-82
2022/03/15 02:57:12;;;;;;;15.95;8.77;;;;;;;10.18;52.76;102637.44;4988252;28;123766;-82
2022/03/15 02:59:40;;;;;;;14.50;7.75;;;;;;;10.16;52.67;102639.22;5001895;28;124053;-81
2022/03/15 03:02:08;;;;;;;15.15;8.75;;;;;;;10.13;53.10;102633.97;4999824;28;116079;-81
2022/03/15 03:04:35;;;;;;;14.98;8.77;;;;;;;10.12;52.79;102632.22;4991737;28;112397;-82
2022/03/15 03:07:03;;;;;;;15.25;8.25;;;;;;;10.10;53.04;102628.72;4986186;28;120970;-82
2022/03/15 03:09:30;;;;;;;15.20;8.25;;;;;;;10.09;52.82;102632.25;4985888;28;124737;-83
2022/03/15 03:12:00;;;;;;;15.48;8.48;;;;;;;10.09;53.04;102632.25;4986664;28;113876;-82
2022/03/15 03:14:27;;;;;;;16.35;8.85;;;;;;;10.09;52.89;102632.25;4971288;28;111897;-82
2022/03/15 03:16:54;;;;;;;17.17;8.30;;;;;;;10.07;52.99;102634.06;4985176;28;122518;-82
2022/03/15 03:19:23;;;;;;;17.67;8.50;;;;;;;10.05;52.87;102627.91;4977085;28;123896;-82
2022/03/15 03:21:51;;;;;;;15.57;8.45;;;;;;;10.04;53.06;102615.56;4976134;28;114259;-82
2022/03/15 03:24:23;;;;;;;16.30;8.40;;;;;;;10.02;53.06;102620.00;4960715;28;113093;-82
2022/03/15 03:26:50;;;;;;;15.50;8.02;;;;;;;10.00;53.01;102611.22;4975300;28;123774;-82
2022/03/15 03:29:18;;;;;;;17.45;8.20;;;;;;;10.00;53.01;102613.84;4974521;28;123754;-82
2022/03/15 03:31:46;;;;;;;17.23;8.18;;;;;;;9.99;52.90;102609.47;4973300;28;115599;-82
2022/03/15 03:34:14;;;;;;;17.73;7.72;;;;;;;9.97;52.89;102616.56;4977949;28;115066;-82
2022/03/15 03:36:41;;;;;;;18.42;8.38;;;;;;;9.94;52.94;102615.72;4977193;28;124340;-82
2022/03/15 03:39:24;;;;;;;15.60;8.10;;;;;;;9.92;53.13;102609.53;4974576;28;124350;-82
2022/03/15 03:41:52;;;;;;;12.93;8.20;;;;;;;9.92;52.87;102613.97;4991514;28;113993;-82
2022/03/15 03:44:19;;;;;;;15.68;8.02;;;;;;;9.91;52.83;102607.81;4975384;28;113667;-81
2022/03/15 03:46:47;;;;;;;15.57;8.15;;;;;;;9.91;52.95;102607.81;4974554;28;124228;-82
2022/03/15 03:49:14;;;;;;;14.18;7.93;;;;;;;9.89;52.91;102604.31;4990919;28;123309;-82
2022/03/15 03:51:42;;;;;;;15.23;8.15;;;;;;;9.89;53.01;102604.31;4974025;28;113420;-82
2022/03/15 03:54:09;;;;;;;15.52;8.43;;;;;;;9.88;53.14;102602.53;4990719;28;113930;-83
2022/03/15 03:56:36;;;;;;;13.93;8.10;;;;;;;9.87;52.87;102600.81;4988825;28;123905;-83
2022/03/15 03:59:04;;;;;;;16.27;8.05;;;;;;;9.86;52.93;102604.34;4973368;28;124886;-84
2022/03/15 04:01:31;;;;;;;18.40;8.80;;;;;;;9.84;52.71;102611.44;4973518;28;113600;-83
2022/03/15 04:04:05;;;;;;;13.23;7.68;;;;;;;9.82;53.13;102607.94;4974860;28;112308;-83
2022/03/15 04:06:33;;;;;;;15.93;8.00;;;;;;;9.82;53.19;102607.94;4989965;28;124551;-81
2022/03/15 04:09:00;;;;;;;14.00;8.13;;;;;;;9.80;53.45;102604.44;4974177;28;123851;-82
2022/03/15 04:11:29;;;;;;;14.27;7.82;;;;;;;9.79;53.10;102607.97;4989211;28;114306;-82
2022/03/15 04:13:59;;;;;;;14.65;7.68;;;;;;;9.78;53.28;102614.16;4990529;28;112674;-82
2022/03/15 04:16:27;;;;;;;15.68;7.82;;;;;;;9.78;53.15;102608.88;4970804;28;123805;-82
2022/03/15 04:18:54;;;;;;;12.43;7.55;;;;;;;9.77;53.12;102604.47;4971522;28;123832;-81
2022/03/15 04:21:24;;;;;;;14.65;8.18;;;;;;;9.77;52.93;102615.03;4972853;28;114628;-82
2022/03/15 04:23:56;;;;;;;15.05;8.00;;;;;;;9.75;53.34;102617.72;4972973;28;115792;-82
2022/03/15 04:26:24;;;;;;;14.38;7.78;;;;;;;9.76;53.15;102610.66;4975073;28;124758;-81
2022/03/15 04:28:53;;;;;;;16.50;8.15;;;;;;;9.75;53.32;102611.53;4976875;28;122939;-82
2022/03/15 04:31:22;;;;;;;18.65;8.20;;;;;;;9.76;53.57;102610.66;4994750;28;113122;-82
2022/03/15 04:33:50;;;;;;;15.95;7.70;;;;;;;9.76;52.94;102608.03;4971950;28;113896;-82
2022/03/15 04:36:17;;;;;;;14.18;7.72;;;;;;;9.75;53.08;102606.25;4971490;28;123452;-82
2022/03/15 04:38:46;;;;;;;14.32;7.47;;;;;;;9.74;53.13;102605.38;4974159;28;123550;-82
2022/03/15 04:41:14;;;;;;;16.63;8.10;;;;;;;9.72;53.33;102606.31;4970520;28;113723;-82
2022/03/15 04:43:41;;;;;;;14.85;8.15;;;;;;;9.68;53.31;102599.28;4989133;28;113073;-82
2022/03/15 04:46:08;;;;;;;14.50;7.00;;;;;;;9.66;53.02;102601.09;4987159;28;123335;-81
2022/03/15 04:48:35;;;;;;;20.40;7.95;;;;;;;9.63;53.20;102606.44;4954684;28;122840;-81
2022/03/15 04:51:05;;;;;;;12.95;7.68;;;;;;;9.61;53.09;102597.66;4970851;28;114879;-81
2022/03/15 04:53:33;;;;;;;14.80;8.00;;;;;;;9.60;53.08;102595.88;4974497;28;114130;-82
2022/03/15 04:56:00;;;;;;;16.27;8.15;;;;;;;9.59;53.13;102595.00;4954458;28;123221;-82
2022/03/15 04:58:27;;;;;;;15.52;8.18;;;;;;;9.58;53.46;102597.66;4986572;28;122861;-82
2022/03/15 05:00:54;;;;;;;19.23;9.52;;;;;;;9.55;53.32;102591.53;4987023;28;114344;-82
2022/03/15 05:03:22;;;;;;;17.15;8.02;;;;;;;9.55;53.42;102593.31;4987649;28;113238;-82
2022/03/15 05:05:50;;;;;;;16.48;7.90;;;;;;;9.54;53.69;102592.41;4987960;28;123923;-82
2022/03/15 05:08:17;;;;;;;14.18;7.78;;;;;;;9.53;53.65;102593.31;4975209;28;122993;-82
2022/03/15 05:13:30;;;;;;;15.43;7.93;;;;;;;9.52;53.66;102583.63;4975571;28;115216;-83
2022/03/15 05:15:57;;;;;;;17.88;8.48;;;;;;;9.52;53.30;102578.31;4996526;28;123392;-82
2022/03/15 05:18:24;;;;;;;13.52;7.90;;;;;;;9.52;53.93;102582.75;4996793;28;123481;-82
2022/03/15 05:20:52;;;;;;;14.50;7.75;;;;;;;9.51;53.47;102579.25;4999729;28;113295;-83
2022/03/15 05:23:19;;;;;;;14.93;7.70;;;;;;;9.52;53.51;102577.47;5021906;28;112926;-82
2022/03/15 05:25:46;;;;;;;18.55;8.30;;;;;;;9.52;53.38;102578.31;4993941;28;124480;-83
2022/03/15 05:28:13;;;;;;;17.15;8.18;;;;;;;9.53;53.83;102581.84;5009814;28;122159;-82
2022/03/15 05:30:40;;;;;;;15.90;8.07;;;;;;;9.54;53.59;102587.13;4977738;28;112256;-83
2022/03/15 05:33:08;;;;;;;15.65;7.82;;;;;;;9.54;53.54;102587.13;4994093;28;113896;-82
2022/03/15 05:35:41;;;;;;;18.85;8.05;;;;;;;9.56;53.80;102581.81;4995917;28;123745;-82
2022/03/15 05:38:09;;;;;;;16.60;7.68;;;;;;;9.58;53.55;102576.50;5000500;28;123107;-82
2022/03/15 05:40:37;;;;;;;18.58;8.02;;;;;;;9.58;53.75;102571.22;4999330;28;112450;-83
2022/03/15 05:43:04;;;;;;;14.27;7.70;;;;;;;9.59;53.84;102578.25;4998961;28;113180;-82
2022/03/15 05:45:31;;;;;;;12.63;6.97;;;;;;;9.55;53.77;102578.31;4997840;28;123700;-83
2022/03/15 05:47:59;;;;;;;14.60;7.50;;;;;;;9.54;53.80;102581.81;4997024;28;123982;-82
2022/03/15 05:50:26;;;;;;;14.60;7.70;;;;;;;9.53;53.89;102568.63;4996367;28;112905;-82
2022/03/15 05:52:53;;;;;;;18.05;7.90;;;;;;;9.52;54.04;102572.16;4979989;28;113470;-82
2022/03/15 05:55:21;;;;;;;16.20;8.13;;;;;;;9.51;53.82;102576.59;4992795;28;123528;-82
2022/03/15 05:57:48;;;;;;;11.77;7.25;;;;;;;9.51;53.77;102568.66;4996280;28;122230;-82
2022/03/15 06:00:16;;;;;;;19.50;7.43;;;;;;;9.50;54.05;102564.25;4994567;28;114503;-82
2022/03/15 06:02:44;;;;;;;17.60;8.02;;;;;;;9.51;54.12;102568.66;5011570;28;116322;-82
2022/03/15 06:05:12;;;;;;;14.95;7.53;;;;;;;9.52;53.88;102566.88;5010837;28;124511;-83
2022/03/15 06:07:50;;;;;;;13.93;7.60;;;;;;;9.52;53.88;102567.75;4994473;28;123685;-82
2022/03/15 06:10:21;;;;;;;15.13;7.40;;;;;;;9.53;53.92;102563.31;4997939;28;112558;-82
2022/03/15 06:12:50;;;;;;;13.68;6.97;;;;;;;9.53;53.75;102564.22;4998884;28;112424;-82
2022/03/15 06:15:18;;;;;;;17.65;6.72;;;;;;;9.52;53.67;102562.47;5002713;28;121888;-83
2022/03/15 06:18:00;;;;;;;10.85;6.32;;;;;;;9.53;53.96;102569.50;5011217;28;123676;-82
2022/03/15 06:20:28;;;;;;;14.60;7.90;;;;;;;9.54;54.06;102565.97;4994962;28;114350;-82
2022/03/15 06:22:57;;;;;;;12.48;7.03;;;;;;;9.54;53.86;102555.38;4978478;28;113828;-83
2022/03/15 06:25:25;;;;;;;14.40;7.07;;;;;;;9.58;53.81;102555.34;4996080;28;123286;-82
2022/03/15 06:27:52;;;;;;;13.00;6.82;;;;;;;9.58;53.79;102556.22;4995993;28;122873;-82
2022/03/15 06:30:20;;;;;;;16.02;7.57;;;;;;;9.60;54.04;102558.84;4993482;28;114717;-82
2022/03/15 06:32:47;;;;;;;15.23;7.78;;;;;;;9.61;53.82;102557.97;5002070;28;113399;-83
2022/03/15 06:35:15;;;;;;;17.40;7.05;;;;;;;9.62;54.05;102559.69;4993203;28;122863;-81
2022/03/15 06:37:45;;;;;;;14.55;7.80;;;;;;;9.63;54.32;102553.53;4977137;28;123530;-83
2022/03/15 06:40:15;;;;;;;13.27;7.00;;;;;;;9.65;54.02;102546.44;4976605;28;114001;-81
2022/03/15 06:42:44;;;;;;;17.58;7.65;;;;;;;9.67;53.95;102549.94;4977529;28;115051;-83
2022/03/15 06:45:11;;;;;;;14.93;7.40;;;;;;;9.68;53.97;102551.66;4975526;28;122915;-81
2022/03/15 06:47:39;;;;;;;15.48;7.43;;;;;;;9.68;53.86;102543.72;4975854;28;124398;-81
2022/03/15 06:50:08;;;;;;;14.23;7.30;;;;;;;9.68;53.90;102535.78;4974569;28;115124;-81
2022/03/15 06:52:36;;;;;;;17.90;7.63;;;;;;;9.70;53.99;102539.28;4957396;28;112824;-81
2022/03/15 06:55:05;;;;;;;21.10;7.38;;;;;;;9.72;54.22;102537.53;4990839;28;123160;-81
2022/03/15 06:57:33;;;;;;;13.57;8.00;;;;;;;9.72;54.23;102532.22;4974850;28;122135;-82
2022/03/15 07:00:00;;;;;;;14.30;7.75;;;;;;;9.73;54.05;102528.66;4974323;28;113696;-83
2022/03/15 07:02:28;;;;;;;16.58;8.02;;;;;;;9.73;54.27;102528.66;4958834;28;112008;-82
2022/03/15 07:04:55;;;;;;;14.25;7.35;;;;;;;9.74;54.11;102519.84;4976665;28;122360;-82
2022/03/15 07:07:23;;;;;;;18.23;8.68;;;;;;;9.77;54.29;102534.81;4966265;28;122696;-81
2022/03/15 07:09:50;;;;;;;16.13;7.72;;;;;;;9.78;54.69;102526.84;4966273;28;112158;-82
2022/03/15 07:12:19;;;;;;;17.50;7.60;;;;;;;9.82;54.67;102538.25;4983410;28;113778;-81
2022/03/15 07:14:47;;;;;;;15.20;7.40;;;;;;;9.86;54.62;102539.97;4996652;28;123182;-82
2022/03/15 07:17:14;;;;;;;16.60;7.65;;;;;;;9.88;54.54;102533.75;5012543;28;123259;-82
2022/03/15 07:19:41;;;;;;;13.25;7.35;;;;;;;9.94;54.34;102528.38;5000877;28;115432;-82
2022/03/15 07:22:08;;;;;;;14.38;8.23;;;;;;;9.99;54.37;102535.38;4981282;28;113005;-83
2022/03/15 07:24:35;;;;;;;13.40;7.20;;;;;;;10.01;54.62;102528.28;4980565;28;122767;-82
2022/03/15 07:27:03;;;;;;;13.55;7.22;;;;;;;10.03;54.64;102526.47;4978536;28;122883;-82
2022/03/15 07:29:30;;;;;;;13.60;7.53;;;;;;;10.06;54.51;102521.13;4994869;28;114448;-82
2022/03/15 07:31:58;;;;;;;11.48;7.00;;;;;;;10.08;54.26;102514.03;4995134;28;112676;-81
2022/03/15 07:34:25;;;;;;;12.75;7.05;;;;;;;10.11;54.40;102524.56;4990306;28;123247;-81
2022/03/15 07:36:52;;;;;;;13.73;7.40;;;;;;;10.12;54.55;102505.16;4990801;28;122929;-81
2022/03/15 07:39:20;;;;;;;10.65;6.53;;;;;;;10.15;54.43;102510.38;4994467;28;114756;-82
2022/03/15 07:41:50;;;;;;;13.25;6.65;;;;;;;10.20;54.62;102508.53;5006947;28;114993;-81
2022/03/15 07:44:17;;;;;;;13.95;7.25;;;;;;;10.24;54.75;102509.34;4975114;28;122563;-82
2022/03/15 07:46:48;;;;;;;11.98;6.43;;;;;;;10.26;54.48;102508.41;4956127;28;124805;-81
2022/03/15 07:49:18;;;;;;;17.05;7.20;;;;;;;10.31;54.38;102506.63;4968617;28;114222;-81
2022/03/15 07:51:46;;;;;;;13.93;7.00;;;;;;;10.35;54.52;102501.28;4988338;28;113863;-82
2022/03/15 07:54:14;;;;;;;12.07;6.45;;;;;;;10.41;54.71;102501.16;4984994;28;123875;-82
2022/03/15 07:56:43;;;;;;;14.43;6.13;;;;;;;10.45;54.72;102502.84;4990763;28;123705;-82
2022/03/15 07:59:11;;;;;;;12.50;6.55;;;;;;;10.49;54.62;102499.22;4993799;28;114383;-81
2022/03/15 08:01:38;;;;;;;12.55;6.40;;;;;;;10.51;54.68;102497.47;4993506;28;114088;-81
2022/03/15 08:04:06;;;;;;;11.40;6.35;;;;;;;10.55;54.60;102493.84;4990527;28;122308;-82
2022/03/15 08:06:35;;;;;;;13.20;6.95;;;;;;;10.59;54.50;102499.97;4978067;28;122174;-82
2022/03/15 08:09:03;;;;;;;11.57;6.53;;;;;;;10.63;54.29;102493.69;5010583;28;115010;-82
2022/03/15 08:11:31;;;;;;;11.55;5.93;;;;;;;10.65;54.22;102495.41;5013538;28;111790;-81
2022/03/15 08:13:58;;;;;;;14.65;6.90;;;;;;;10.70;54.75;102482.97;5010847;28;123989;-82
2022/03/15 08:16:26;;;;;;;13.05;6.63;;;;;;;10.75;54.46;102485.50;5009647;28;123774;-80
2022/03/15 08:18:55;;;;;;;12.63;6.15;;;;;;;10.79;54.46;102479.22;4979205;28;114845;-81
2022/03/15 08:21:22;;;;;;;12.45;6.22;;;;;;;10.82;54.30;102481.84;4976786;28;114123;-80
2022/03/15 08:23:50;;;;;;;10.70;6.22;;;;;;;10.87;54.52;102484.41;4980288;28;124176;-82
2022/03/15 08:26:18;;;;;;;10.60;5.20;;;;;;;10.91;54.23;102486.09;4969293;28;123542;-81
2022/03/15 08:28:48;;;;;;;10.63;5.80;;;;;;;10.95;54.38;102487.78;4970288;28;115157;-81
2022/03/15 08:31:16;;;;;;;12.63;5.85;;;;;;;10.98;54.16;102493.03;4985821;28;113984;-81
2022/03/15 08:33:47;;;;;;;10.20;5.65;;;;;;;11.03;54.72;102485.81;4985369;28;124633;-80
2022/03/15 08:36:14;;;;;;;11.60;5.30;;;;;;;11.08;54.66;102489.25;4973953;28;122851;-80
2022/03/15 08:38:41;;;;;;;10.60;5.35;;;;;;;11.15;54.49;102478.53;4985984;28;114218;-80
2022/03/15 08:41:09;;;;;;;10.80;5.13;;;;;;;11.20;54.45;102471.34;4984164;28;113777;-81
2022/03/15 08:43:36;;;;;;;12.98;6.10;;;;;;;11.24;54.27;102467.72;4975711;28;123526;-81
2022/03/15 08:46:04;;;;;;;12.40;5.90;;;;;;;11.29;54.28;102471.16;4973309;28;123597;-80
2022/03/15 08:48:32;;;;;;;9.25;5.90;;;;;;;11.35;54.18;102470.16;4997413;28;114226;-80
2022/03/15 08:51:00;;;;;;;16.17;6.05;;;;;;;11.40;54.17;102474.44;5011924;28;116867;-80
2022/03/15 08:53:29;;;;;;;10.15;5.72;;;;;;;11.45;54.35;102477.88;4971991;28;123989;-81
2022/03/15 08:55:56;;;;;;;11.82;5.88;;;;;;;11.50;54.34;102460.03;4980599;28;123259;-80
2022/03/15 08:58:23;;;;;;;10.48;5.65;;;;;;;11.55;54.16;102464.41;4981076;28;114165;-80
2022/03/15 09:00:52;;;;;;;10.68;5.75;;;;;;;11.61;54.16;102461.59;4975168;28;113947;-81
2022/03/15 09:03:19;;;;;;;10.40;5.47;;;;;;;11.67;54.11;102462.31;4990525;28;124012;-81
2022/03/15 09:05:47;;;;;;;15.00;5.50;;;;;;;11.73;53.96;102461.28;4990835;28;123190;-80
2022/03/15 09:08:17;;;;;;;8.25;5.20;;;;;;;11.76;53.76;102461.22;4977337;28;113828;-80
2022/03/15 09:10:44;;;;;;;12.57;5.38;;;;;;;11.80;54.30;102457.59;4977675;28;111870;-80
2022/03/15 09:13:12;;;;;;;11.35;5.50;;;;;;;11.85;54.11;102445.09;4989639;28;123051;-81
2022/03/15 09:15:39;;;;;;;11.60;5.47;;;;;;;11.92;54.22;102450.25;4980127;28;123148;-81
2022/03/15 09:18:07;;;;;;;12.23;5.88;;;;;;;11.97;53.98;102432.44;4982660;28;115610;-81
2022/03/15 09:20:35;;;;;;;13.35;5.50;;;;;;;12.03;53.91;102437.59;4988641;28;115008;-80
2022/03/15 09:23:02;;;;;;;9.50;5.72;;;;;;;12.08;53.89;102435.69;4988544;28;123959;-80
2022/03/15 09:25:32;;;;;;;12.30;5.38;;;;;;;12.12;53.74;102432.03;4973088;28;123578;-80
2022/03/15 09:27:59;;;;;;;11.23;5.50;;;;;;;12.18;53.77;102436.31;4970519;28;115431;-80
2022/03/15 09:30:30;;;;;;;12.25;5.80;;;;;;;12.23;54.06;102429.97;4976534;28;113575;-80
2022/03/15 09:32:59;;;;;;;11.75;6.05;;;;;;;12.30;53.85;102435.13;4980971;28;124040;-81
2022/03/15 09:35:26;;;;;;;9.43;5.25;;;;;;;12.36;53.72;102429.66;4989231;28;123642;-80
2022/03/15 09:37:54;;;;;;;11.95;5.82;;;;;;;12.42;53.45;102434.81;4991854;28;113509;-80
2022/03/15 09:40:25;;;;;;;10.80;5.85;;;;;;;12.47;53.57;102432.91;4990958;28;114010;-80
2022/03/15 09:43:01;;;;;;;11.38;5.05;;;;;;;12.52;53.66;102425.66;4993322;28;124165;-80
2022/03/15 09:45:30;;;;;;;14.40;5.55;;;;;;;12.59;53.49;102426.38;4977035;28;123246;-80
2022/03/15 09:48:00;;;;;;;11.32;6.43;;;;;;;12.65;53.60;102421.72;4981581;28;112770;-80
2022/03/15 09:50:28;;;;;;;8.93;5.05;;;;;;;12.73;53.23;102429.50;4985905;28;114935;-80
2022/03/15 09:52:58;;;;;;;9.07;4.63;;;;;;;12.76;53.38;102423.22;4970792;28;124627;-81
2022/03/15 09:55:26;;;;;;;10.05;4.78;;;;;;;12.83;53.20;102419.47;4971235;28;126068;-81
2022/03/15 09:57:56;;;;;;;9.20;5.32;;;;;;;12.90;53.27;102418.34;4976005;28;113299;-81
2022/03/15 10:00:24;;;;;;;8.85;5.00;;;;;;;12.97;53.24;102422.59;4976389;28;114226;-81
2022/03/15 10:02:54;;;;;;;9.20;4.45;;;;;;;13.04;53.28;102418.84;4957526;28;123579;-81
2022/03/15 10:05:21;;;;;;;9.23;5.40;;;;;;;13.11;52.67;102423.97;4974537;28;123922;-81
2022/03/15 10:07:49;;;;;;;9.07;4.80;;;;;;;13.16;52.74;102416.72;4982528;28;114473;-81
2022/03/15 10:10:16;;;;;;;8.10;4.80;;;;;;;13.23;52.50;102412.97;4996789;28;113668;-81
2022/03/15 10:12:43;;;;;;;9.63;4.80;;;;;;;13.27;52.22;102414.59;4996613;28;123134;-82
2022/03/15 10:15:13;;;;;;;8.10;4.60;;;;;;;13.31;52.12;102421.59;4994794;28;123532;-82
2022/03/15 10:17:43;;;;;;;8.13;5.05;;;;;;;13.37;52.10;102416.09;4977162;28;114458;-80
2022/03/15 10:20:13;;;;;;;8.57;4.43;;;;;;;13.42;52.07;102414.16;4991339;28;114129;-80
2022/03/15 10:22:52;;;;;;;8.27;4.28;;;;;;;13.47;52.18;102415.78;4990658;28;124267;-80
2022/03/15 10:25:24;;;;;;;11.70;5.00;;;;;;;13.54;52.23;102410.25;4974917;28;124137;-81
2022/03/15 10:27:54;;;;;;;11.25;5.45;;;;;;;13.62;52.08;102404.66;4996526;28;114171;-81
2022/03/15 10:30:23;;;;;;;9.98;5.10;;;;;;;13.67;51.86;102412.50;4971785;28;114363;-81
2022/03/15 10:32:51;;;;;;;9.35;4.70;;;;;;;13.72;51.58;102406.09;4993322;28;123328;-81
2022/03/15 10:35:20;;;;;;;9.20;4.65;;;;;;;13.80;51.61;102404.03;4988447;28;122426;-80
2022/03/15 10:37:49;;;;;;;8.70;4.53;;;;;;;13.87;51.52;102401.19;4994602;28;115195;-80
2022/03/15 10:40:18;;;;;;;17.98;6.25;;;;;;;13.92;51.41;102402.78;4991936;28;113010;-81
2022/03/15 10:42:47;;;;;;;18.67;6.28;;;;;;;13.97;51.46;102405.25;4991770;28;124142;-81
2022/03/15 10:45:20;;;;;;;12.20;5.28;;;;;;;13.99;51.10;102392.75;4988775;28;124217;-81
2022/03/15 10:47:54;;;;;;;13.57;5.63;;;;;;;14.00;51.17;102394.50;4990772;28;113658;-80
2022/03/15 10:51:49;;;;;;;11.30;5.10;;;;;;;13.94;51.28;102389.41;5012492;28;96607;-64
2022/03/15 10:54:23;;;;;;;10.98;4.72;;;;;;;13.94;51.25;102384.06;5000113;28;107340;-63
2022/03/15 10:57:01;;;;;;;7.90;4.65;;;;;;;14.02;51.44;102382.00;4970918;28;124086;-63
2022/03/15 10:59:28;;;;;;;8.20;4.50;;;;;;;14.11;51.02;102379.03;4970914;28;125179;-63
2022/03/15 11:01:56;;;;;;;8.40;4.55;;;;;;;14.15;50.69;102363.81;4968424;28;107369;-63
2022/03/15 11:04:23;;;;;;;6.57;4.25;;;;;;;14.18;50.67;102367.22;4979659;28;107340;-62
2022/03/15 11:06:51;;;;;;;10.88;5.10;;;;;;;14.23;50.63;102358.19;4976378;28;124361;-63
2022/03/15 11:09:32;;;;;;;8.98;4.32;;;;;;;14.28;50.72;102358.88;4980595;28;123103;-62
2022/03/15 11:12:09;;;;;;;8.40;5.07;;;;;;;14.34;50.57;102356.88;4974430;28;108094;-63
2022/03/15 11:14:47;;;;;;;9.85;4.40;;;;;;;14.39;50.38;102349.59;4972639;28;107326;-63
2022/03/15 11:17:22;;;;;;;7.95;4.53;;;;;;;14.43;50.13;102355.69;4985889;28;123144;-63
2022/03/15 11:19:58;;;;;;;8.20;5.03;;;;;;;14.47;50.17;102346.63;4967312;28;123770;-63
2022/03/15 11:22:30;;;;;;;9.32;4.45;;;;;;;14.53;50.08;102345.53;4971474;28;107792;-63